Aeroporto :
LOGIN :

Iscrizione | Disclaimer

   EN    FR    IT 

 










Sommario :    VFR   VFR Marginale   IFR   IFR Intensivo   IFR Molto Intensivo
Visibilità : 
Base nubi : 
>= 8 km
>= 3000ft
5 / 8 km
1000 / 3000 ft
1500m / 5 km
500 / 1000 ft
800 / 1500m
200 / 500 ft
< 800m
< 200 ft
Simboli :   Temporali  Nebbia  Neve Forte  Precipitazioni Forti  Vento > 20 kt
SIGMETs :   Varie  Temporali  Ghiacco  Turbolenza  Onda orograficha  Ceneri Vulcaniche






- Altitudine del aeroporto : 348 ft
- Codice IATA : STN


EGSS - London Stansted

ULTIMO METAR :
  • 272250Z AUTO 22011KT 9999 NCD 08/06 Q0999

METARs OBSOLETI :
  • 272220Z AUTO 22011KT 9999 NCD 07/06 Q0999
  • 272150Z AUTO 22010KT 9999 NCD 07/06 Q0999
  • 272120Z AUTO 22010KT 9999 NCD 08/06 Q0998
  • 272050Z AUTO 22009KT 9999 NCD 08/06 Q0998
  • 272020Z AUTO 22008KT 9999 NCD 07/06 Q0997

TAF TAF EGSS
Valido dal 27 a 18 ore il 29 a 00 ore UTC


271659Z 2718/2824 23011KT 9999 SCT030
TEMPO 2810/2816 23015G25KT
PROB40
TEMPO 2814/2818 6000 SHRA
ATIS : +44 1279 669 325



MetMap, La meteo Aeronautica in un colpo d'occhio ! - Copyright ORBIFLY Dicembre 2007 - Disclaimer

ORBIFLY MET'MAP TEAM :

Programmazione e sviluppo : Alexandra Zaïnal
Concezione : Baudouin d'Aumeries
Aiuto per la programmazione : Marc-Olivier Méhu
Supporto tecnico e logistico : Manuel Goepfert
Aiuto per la traduzione : Arnaldo La Scala

Contatto : metmap@orbifly.com




FONTI E CREDITI :

   NOAA